Time;durP1;ratioP1;P1;durP2;ratioP2;P2;SDS_P1;SDS_P2;PMS_P1;PMS_P2;Temp;Humidity;BMP_temperature;BMP_pressure;BME280_temperature;BME280_humidity;BME280_pressure;Samples;Min_cycle;Max_cycle;Signal;HPM_P1;HPM_P2
2021/10/22 00:00:56;;;;;;;;;;;;;;;15.05;70.52;98317.38;1659355;84;20145;-70
2021/10/22 00:03:22;;;;;;;;;;;;;;;15.05;70.58;98326.28;1644903;86;21129;-72
2021/10/22 00:05:49;;;;;;;;;;;;;;;15.05;70.51;98324.93;1639646;86;20132;-71
2021/10/22 00:08:16;;;;;;;;;;;;;;;15.05;70.96;98327.63;1639839;86;20100;-68
2021/10/22 00:10:42;;;;;;;;;;;;;;;15.01;70.42;98309.09;1680408;85;20445;-71
2021/10/22 00:13:10;;;;;;;;;;;;;;;15.08;70.43;98331.61;1681290;84;20469;-71
2021/10/22 00:15:38;;;;;;;;;;;;;;;15.05;70.51;98345.20;1680924;84;21140;-70
2021/10/22 00:18:05;;;;;;;;;;;;;;;15.03;70.74;98347.97;1681007;85;20148;-72
2021/10/22 00:20:31;;;;;;;;;;;;;;;14.99;70.73;98343.73;1673718;85;20146;-72
2021/10/22 00:22:59;;;;;;;;;;;;;;;14.98;70.95;98351.60;1669996;85;20188;-73
2021/10/22 00:25:26;;;;;;;;;;;;;;;14.93;71.10;98349.83;1670074;84;20141;-73
2021/10/22 00:27:56;;;;;;;;;;;;;;;14.88;71.19;98343.78;1670666;84;20159;-71
2021/10/22 00:30:22;;;;;;;;;;;;;;;14.86;71.30;98350.05;1667408;85;20423;-71
2021/10/22 00:32:49;;;;;;;;;;;;;;;14.85;71.53;98344.41;1666998;86;20490;-72
2021/10/22 00:35:15;;;;;;;;;;;;;;;14.75;72.03;98357.63;1666766;86;20113;-71
2021/10/22 00:37:42;;;;;;;;;;;;;;;14.70;72.28;98364.48;1666982;86;20142;-75
2021/10/22 00:40:10;;;;;;;;;;;;;;;14.57;72.17;98361.56;1666532;86;21105;-72
2021/10/22 00:42:37;;;;;;;;;;;;;;;14.53;72.41;98367.88;1666312;86;20124;-72
2021/10/22 00:45:07;;;;;;;;;;;;;;;14.47;72.70;98353.69;1679171;85;20139;-72
2021/10/22 00:47:35;;;;;;;;;;;;;;;14.40;73.17;98364.69;1681039;85;20438;-74
2021/10/22 00:50:02;;;;;;;;;;;;;;;14.35;73.23;98371.00;1681074;85;20124;-75
2021/10/22 00:52:29;;;;;;;;;;;;;;;14.35;73.44;98374.49;1680360;85;21968;-72
2021/10/22 00:54:57;;;;;;;;;;;;;;;14.25;73.39;98388.23;1680968;85;20112;-75
2021/10/22 00:57:24;;;;;;;;;;;;;;;14.28;72.45;98386.83;1681315;85;20183;-73
2021/10/22 00:59:51;;;;;;;;;;;;;;;14.29;71.98;98385.73;1668053;85;20152;-73
2021/10/22 01:02:20;;;;;;;;;;;;;;;14.25;71.78;98373.95;1667724;85;20126;-71
2021/10/22 01:04:46;;;;;;;;;;;;;;;14.17;72.31;98371.99;1639676;86;21180;-75
2021/10/22 01:07:17;;;;;;;;;;;;;;;14.16;71.92;98387.39;1666853;86;20141;-74
2021/10/22 01:09:45;;;;;;;;;;;;;;;14.10;72.21;98380.50;1666926;86;20199;-72
2021/10/22 01:12:13;;;;;;;;;;;;;;;14.10;72.19;98373.76;1666713;86;20137;-73
2021/10/22 01:14:39;;;;;;;;;;;;;;;14.06;72.53;98390.30;1679655;85;20120;-73
2021/10/22 01:17:29;;;;;;;;;;;;;;;13.97;73.26;98393.50;1680855;84;21204;-76
2021/10/22 01:19:56;;;;;;;;;;;;;;;13.82;74.17;98396.77;1681033;85;20429;-73
2021/10/22 01:22:22;;;;;;;;;;;;;;;13.73;74.91;98405.33;1680826;84;20084;-73
2021/10/22 01:24:49;;;;;;;;;;;;;;;13.65;75.54;98414.92;1680954;85;20099;-72
2021/10/22 01:27:17;;;;;;;;;;;;;;;13.53;75.99;98413.84;1670609;84;20156;-76
2021/10/22 01:29:43;;;;;;;;;;;;;;;13.49;75.94;98420.38;1666639;85;21840;-73
2021/10/22 01:32:10;;;;;;;;;;;;;;;13.51;75.73;98427.61;1666842;86;20089;-74
2021/10/22 01:34:37;;;;;;;;;;;;;;;13.43;75.97;98426.42;1666532;86;20264;-75
2021/10/22 01:37:04;;;;;;;;;;;;;;;13.38;76.02;98427.08;1666796;86;20169;-72
2021/10/22 01:39:31;;;;;;;;;;;;;;;13.22;76.62;98428.67;1666888;86;20467;-73
2021/10/22 01:42:00;;;;;;;;;;;;;;;13.13;77.34;98426.44;1675937;85;21156;-73
2021/10/22 01:44:27;;;;;;;;;;;;;;;13.08;77.59;98419.25;1680966;85;20124;-75
2021/10/22 01:46:55;;;;;;;;;;;;;;;13.04;77.97;98423.63;1680916;85;20468;-78
2021/10/22 01:49:21;;;;;;;;;;;;;;;12.93;78.77;98429.48;1681015;85;20080;-74
2021/10/22 01:51:48;;;;;;;;;;;;;;;12.92;79.13;98426.00;1680304;84;20127;-72
2021/10/22 01:54:15;;;;;;;;;;;;;;;12.84;79.92;98425.34;1655689;85;21158;-74
2021/10/22 01:56:42;;;;;;;;;;;;;;;12.79;80.27;98432.16;1671419;85;20438;-72
2021/10/22 01:59:08;;;;;;;;;;;;;;;12.72;81.16;98438.47;1666636;86;20101;-75
2021/10/22 02:01:35;;;;;;;;;;;;;;;12.70;81.31;98438.75;1666819;86;20130;-74
2021/10/22 02:04:01;;;;;;;;;;;;;;;12.62;81.90;98436.74;1666944;86;20141;-72
2021/10/22 02:06:28;;;;;;;;;;;;;;;12.54;82.05;98434.18;1666963;86;21184;-75
2021/10/22 02:08:56;;;;;;;;;;;;;;;12.50;82.17;98429.67;1666540;86;20129;-74
2021/10/22 02:11:24;;;;;;;;;;;;;;;12.43;82.44;98435.42;1675929;85;20152;-73
2021/10/22 02:13:50;;;;;;;;;;;;;;;12.35;82.86;98439.58;1669155;85;20117;-72
2021/10/22 02:16:18;;;;;;;;;;;;;;;12.30;83.35;98441.00;1662931;84;20150;-72
2021/10/22 02:18:45;;;;;;;;;;;;;;;12.25;83.14;98445.64;1642894;86;21093;-71
2021/10/22 02:21:12;;;;;;;;;;;;;;;12.18;83.46;98448.16;1661859;85;20198;-75
2021/10/22 02:23:40;;;;;;;;;;;;;;;12.12;83.58;98455.23;1667125;86;20440;-75
2021/10/22 02:26:11;;;;;;;;;;;;;;;12.04;83.77;98455.91;1668715;85;20122;-73
2021/10/22 02:28:37;;;;;;;;;;;;;;;12.01;83.65;98464.80;1667070;86;20149;-75
2021/10/22 02:31:04;;;;;;;;;;;;;;;11.97;83.94;98463.77;1640916;85;21152;-74
2021/10/22 02:33:30;;;;;;;;;;;;;;;11.99;83.20;98471.01;1624628;87;20106;-72
2021/10/22 02:35:57;;;;;;;;;;;;;;;12.02;82.74;98472.31;1625344;88;20082;-75
2021/10/22 02:38:23;;;;;;;;;;;;;;;11.94;82.46;98479.14;1597295;89;20163;-75
2021/10/22 02:40:50;;;;;;;;;;;;;;;11.88;82.72;98472.77;1668005;85;20155;-71
2021/10/22 02:43:16;;;;;;;;;;;;;;;11.80;83.20;98476.31;1673019;85;21174;-75
2021/10/22 02:45:43;;;;;;;;;;;;;;;11.74;83.60;98474.80;1673781;85;20104;-72
2021/10/22 02:48:09;;;;;;;;;;;;;;;11.62;83.94;98477.64;1672788;85;20115;-73
2021/10/22 02:50:37;;;;;;;;;;;;;;;11.56;84.09;98487.11;1673432;85;20183;-71
2021/10/22 02:53:03;;;;;;;;;;;;;;;11.56;83.91;98493.00;1672957;85;20445;-73
2021/10/22 02:55:30;;;;;;;;;;;;;;;11.55;83.20;98486.03;1657298;85;21164;-71
2021/10/22 02:57:57;;;;;;;;;;;;;;;11.48;83.71;98490.95;1649714;87;20158;-72
2021/10/22 03:00:25;;;;;;;;;;;;;;;11.38;83.81;98487.28;1650271;86;20507;-73
2021/10/22 03:02:54;;;;;;;;;;;;;;;11.29;84.61;98493.55;1650001;86;20106;-72
2021/10/22 03:05:21;;;;;;;;;;;;;;;11.21;83.98;98503.03;1650201;87;20150;-72
2021/10/22 03:07:47;;;;;;;;;;;;;;;11.19;83.24;98506.55;1650048;87;21100;-73
2021/10/22 03:10:14;;;;;;;;;;;;;;;11.19;82.60;98507.09;1665416;85;20120;-76
2021/10/22 03:12:41;;;;;;;;;;;;;;;11.15;82.23;98512.23;1673574;85;20208;-74
2021/10/22 03:15:09;;;;;;;;;;;;;;;11.12;81.07;98513.61;1672301;85;20116;-74
2021/10/22 03:17:36;;;;;;;;;;;;;;;11.15;80.26;98515.72;1650305;87;20098;-70
2021/10/22 03:20:04;;;;;;;;;;;;;;;11.08;80.31;98522.51;1650077;87;21166;-72
2021/10/22 03:22:31;;;;;;;;;;;;;;;11.02;80.46;98519.59;1649962;86;20283;-73
2021/10/22 03:24:57;;;;;;;;;;;;;;;10.96;80.30;98516.16;1653493;85;20078;-73
2021/10/22 03:27:26;;;;;;;;;;;;;;;10.91;80.85;98522.91;1657504;85;20133;-73
2021/10/22 03:29:53;;;;;;;;;;;;;;;10.85;80.13;98510.08;1656626;85;20115;-73
2021/10/22 03:32:20;;;;;;;;;;;;;;;10.85;80.34;98515.97;1666007;85;21140;-75
2021/10/22 03:34:48;;;;;;;;;;;;;;;10.81;80.11;98519.77;1665651;85;20571;-73
2021/10/22 03:37:15;;;;;;;;;;;;;;;10.72;80.25;98518.75;1662744;85;20112;-73
2021/10/22 03:39:42;;;;;;;;;;;;;;;10.57;80.49;98511.61;1660364;86;20100;-74
2021/10/22 03:42:09;;;;;;;;;;;;;;;10.50;80.88;98513.26;1661381;85;20167;-75
2021/10/22 03:44:37;;;;;;;;;;;;;;;10.48;80.98;98519.47;1665545;86;21164;-71
2021/10/22 03:47:05;;;;;;;;;;;;;;;10.39;81.32;98528.38;1657447;85;20517;-70
2021/10/22 03:49:31;;;;;;;;;;;;;;;10.29;81.95;98532.72;1657383;86;20495;-74
2021/10/22 03:51:58;;;;;;;;;;;;;;;10.26;81.67;98541.80;1657820;86;20097;-72
2021/10/22 03:54:25;;;;;;;;;;;;;;;10.19;82.24;98548.00;1650258;87;20106;-72
2021/10/22 03:56:56;;;;;;;;;;;;;;;10.14;82.47;98557.42;1631708;86;21175;-75
2021/10/22 03:59:22;;;;;;;;;;;;;;;9.98;83.32;98546.77;1650002;87;20465;-73
2021/10/22 04:01:50;;;;;;;;;;;;;;;9.93;83.92;98555.38;1650199;87;20099;-74
2021/10/22 04:04:17;;;;;;;;;;;;;;;9.90;84.31;98566.62;1670385;85;20104;-73
2021/10/22 04:06:44;;;;;;;;;;;;;;;9.84;84.54;98570.66;1673746;85;20163;-72
2021/10/22 04:09:10;;;;;;;;;;;;;;;9.74;85.26;98571.23;1673547;86;21112;-73
2021/10/22 04:11:37;;;;;;;;;;;;;;;9.74;85.25;98575.25;1673504;85;21498;-73
2021/10/22 04:14:05;;;;;;;;;;;;;;;9.75;85.46;98578.19;1656694;85;20117;-73
2021/10/22 04:16:31;;;;;;;;;;;;;;;9.70;85.79;98575.52;1650056;86;20515;-73
2021/10/22 04:19:05;;;;;;;;;;;;;;;9.62;87.25;98579.02;1649897;87;20126;-72
2021/10/22 04:21:33;;;;;;;;;;;;;;;9.60;87.62;98578.52;1657225;85;21174;-74
2021/10/22 04:24:05;;;;;;;;;;;;;;;9.59;87.87;98580.11;1674038;85;20076;-71
2021/10/22 04:26:32;;;;;;;;;;;;;;;9.55;88.41;98582.51;1673750;85;20176;-73
2021/10/22 04:29:00;;;;;;;;;;;;;;;9.53;89.47;98572.62;1673748;85;20422;-73
2021/10/22 04:31:26;;;;;;;;;;;;;;;9.43;89.90;98573.44;1678477;84;20118;-72
2021/10/22 04:33:57;;;;;;;;;;;;;;;9.32;91.60;98576.39;1669188;86;21114;-71
2021/10/22 04:36:24;;;;;;;;;;;;;;;9.22;92.48;98576.66;1669046;86;20156;-75
2021/10/22 04:41:36;;;;;;;;;;;;;;;9.20;93.82;98580.68;1669071;85;20110;-72
2021/10/22 04:44:07;;;;;;;;;;;;;;;9.10;94.83;98578.80;1669353;85;20538;-73
2021/10/22 04:46:33;;;;;;;;;;;;;;;9.04;94.76;98573.20;1671592;84;21833;-73
2021/10/22 04:49:00;;;;;;;;;;;;;;;9.02;95.26;98569.98;1681965;84;20089;-72
2021/10/22 04:51:27;;;;;;;;;;;;;;;8.96;96.00;98561.66;1673621;85;20076;-73
2021/10/22 04:53:54;;;;;;;;;;;;;;;8.97;96.99;98568.10;1679787;84;20134;-74
2021/10/22 04:56:21;;;;;;;;;;;;;;;9.09;96.12;98571.03;1669455;84;20127;-72
2021/10/22 04:58:48;;;;;;;;;;;;;;;9.12;96.19;98586.03;1675061;84;21164;-73
2021/10/22 05:01:15;;;;;;;;;;;;;;;9.15;95.69;98598.08;1674173;85;20111;-74
2021/10/22 05:03:42;;;;;;;;;;;;;;;9.18;95.13;98591.64;1675788;85;20194;-75
2021/10/22 05:06:11;;;;;;;;;;;;;;;9.19;95.09;98593.27;1670145;84;20135;-73
2021/10/22 05:08:40;;;;;;;;;;;;;;;9.18;94.87;98592.98;1671602;85;20087;-72
2021/10/22 05:11:08;;;;;;;;;;;;;;;9.20;94.59;98598.87;1676258;85;21156;-74
2021/10/22 05:13:38;;;;;;;;;;;;;;;9.26;94.09;98602.89;1677810;85;20123;-75
2021/10/22 05:16:06;;;;;;;;;;;;;;;9.35;93.53;98602.62;1664346;85;20436;-70
2021/10/22 05:18:34;;;;;;;;;;;;;;;9.52;92.10;98607.17;1660058;85;20142;-75
2021/10/22 05:21:02;;;;;;;;;;;;;;;9.63;91.60;98607.44;1669764;85;20151;-72
2021/10/22 05:23:29;;;;;;;;;;;;;;;9.70;90.74;98604.99;1687408;85;21146;-73
2021/10/22 05:25:56;;;;;;;;;;;;;;;9.66;90.75;98608.22;1691136;84;20151;-72
2021/10/22 05:28:25;;;;;;;;;;;;;;;9.64;90.97;98619.74;1651732;87;20210;-71
2021/10/22 05:30:56;;;;;;;;;;;;;;;9.63;91.30;98622.17;1661497;85;20138;-74
2021/10/22 05:33:23;;;;;;;;;;;;;;;9.62;91.55;98619.75;1677124;83;20472;-75
2021/10/22 05:35:54;;;;;;;;;;;;;;;9.70;91.45;98627.77;1674268;84;21213;-70
2021/10/22 05:38:20;;;;;;;;;;;;;;;9.68;91.38;98625.38;1670684;86;20123;-73
2021/10/22 05:40:47;;;;;;;;;;;;;;;9.65;90.91;98628.06;1670841;85;20452;-73
2021/10/22 05:43:14;;;;;;;;;;;;;;;9.72;90.41;98639.83;1670648;85;20126;-74
2021/10/22 05:45:43;;;;;;;;;;;;;;;9.71;90.39;98648.16;1670996;86;20160;-74
2021/10/22 05:48:12;;;;;;;;;;;;;;;9.65;90.84;98645.99;1671009;86;20605;-74
2021/10/22 05:50:40;;;;;;;;;;;;;;;9.73;90.96;98651.37;1653711;86;20448;-73
2021/10/22 05:53:09;;;;;;;;;;;;;;;9.80;90.27;98653.20;1670973;85;20141;-73
2021/10/22 05:55:38;;;;;;;;;;;;;;;9.93;89.87;98655.34;1670655;86;20083;-71
2021/10/22 05:58:06;;;;;;;;;;;;;;;10.08;89.21;98654.50;1679341;84;20223;-72
2021/10/22 06:00:32;;;;;;;;;;;;;;;10.42;87.97;98661.41;1681174;84;21127;-72
2021/10/22 06:02:59;;;;;;;;;;;;;;;10.77;85.68;98674.94;1678486;84;20665;-72
2021/10/22 06:05:26;;;;;;;;;;;;;;;10.88;84.22;98675.95;1677403;84;20119;-72
2021/10/22 06:07:55;;;;;;;;;;;;;;;11.23;83.10;98670.64;1669427;84;20560;-68
2021/10/22 06:10:23;;;;;;;;;;;;;;;11.35;82.22;98675.92;1644171;85;20201;-72
2021/10/22 06:12:51;;;;;;;;;;;;;;;11.59;81.19;98681.38;1684014;85;20174;-73
2021/10/22 06:15:18;;;;;;;;;;;;;;;11.73;80.60;98682.86;1684729;85;20107;-74
2021/10/22 06:17:45;;;;;;;;;;;;;;;12.10;79.58;98689.56;1668616;84;20536;-74
2021/10/22 06:20:15;;;;;;;;;;;;;;;12.42;77.72;98687.59;1659303;84;20146;-71
2021/10/22 06:25:21;;;;;;;;;;;;;;;12.79;75.93;98698.19;1589095;90;21134;-73
2021/10/22 06:27:49;;;;;;;;;;;;;;;12.96;73.45;98696.35;1677961;84;20138;-72
2021/10/22 06:30:17;;;;;;;;;;;;;;;13.18;72.59;98685.52;1649338;84;20205;-71
2021/10/22 06:32:55;;;;;;;;;;;;;;;;;;;;;
2021/10/22 06:35:23;;;;;;;;;;;;;;;13.24;70.45;98697.29;1664567;85;20176;-72
2021/10/22 06:37:50;;;;;;;;;;;;;;;13.27;69.18;98706.16;1670760;85;21175;-71
2021/10/22 06:40:21;;;;;;;;;;;;;;;13.50;68.45;98696.95;1672865;85;20122;-73
2021/10/22 06:42:53;;;;;;;;;;;;;;;13.70;67.40;98718.74;1665116;85;20559;-74
2021/10/22 06:45:19;;;;;;;;;;;;;;;13.80;66.99;98721.27;1674112;85;20088;-77
2021/10/22 06:47:47;;;;;;;;;;;;;;;13.84;66.40;98715.55;1669827;84;20168;-71
2021/10/22 06:50:20;;;;;;;;;;;;;;;13.98;64.80;98719.61;1671869;85;21571;-72
2021/10/22 06:52:49;;;;;;;;;;;;;;;14.24;63.99;98714.56;1661097;85;20134;-74
2021/10/22 06:55:16;;;;;;;;;;;;;;;14.59;61.59;98708.26;1664900;85;20131;-73
2021/10/22 06:57:43;;;;;;;;;;;;;;;14.46;61.01;98724.69;1671484;85;20127;-73
2021/10/22 07:00:12;;;;;;;;;;;;;;;14.52;59.20;98709.97;1669457;85;20100;-76
2021/10/22 07:02:49;;;;;;;;;;;;;;;13.86;60.60;98688.26;1668924;83;21073;-71
2021/10/22 07:05:33;;;;;;;;;;;;;;;14.21;60.00;98725.97;1668464;85;20132;-71
2021/10/22 07:07:52;;;;;;;;;;;;;;;14.29;59.42;98729.88;1660379;85;20254;-74
2021/10/22 07:10:19;;;;;;;;;;;;;;;14.51;59.71;98731.34;1670559;85;20183;-71
2021/10/22 07:12:47;;;;;;;;;;;;;;;14.64;57.82;98743.27;1669284;85;20087;-73
2021/10/22 07:15:15;;;;;;;;;;;;;;;14.60;56.17;98746.86;1669176;85;21832;-74
2021/10/22 07:17:48;;;;;;;;;;;;;;;14.42;57.05;98740.42;1674329;85;20116;-73
2021/10/22 07:20:12;;;;;;;;;;;;;;;14.69;55.10;98747.77;1674523;85;20099;-71
2021/10/22 07:23:13;;;;;;;;;;;;;;;14.90;53.83;98740.06;1675497;85;20430;-74
2021/10/22 07:25:15;;;;;;;;;;;;;;;15.13;53.54;98757.14;1643209;85;20178;-74
2021/10/22 07:27:42;;;;;;;;;;;;;;;15.07;53.15;98756.45;1666770;85;21113;-74
2021/10/22 07:30:09;;;;;;;;;;;;;;;15.17;52.28;98745.42;1662409;85;20099;-74
2021/10/22 07:32:40;;;;;;;;;;;;;;;14.78;52.89;98733.82;1643859;84;20189;-72
2021/10/22 07:35:10;;;;;;;;;;;;;;;14.62;52.76;98760.88;1622361;87;20109;-74
2021/10/22 07:37:37;;;;;;;;;;;;;;;14.29;52.62;98748.77;1633926;86;20165;-73
2021/10/22 07:40:05;;;;;;;;;;;;;;;14.60;52.40;98757.14;1629379;86;21141;-70
2021/10/22 07:42:37;;;;;;;;;;;;;;;14.55;51.43;98747.23;1622782;86;20224;-75
2021/10/22 07:45:11;;;;;;;;;;;;;;;14.45;51.59;98753.32;1631577;86;20189;-75
2021/10/22 07:47:40;;;;;;;;;;;;;;;14.67;51.00;98760.77;1624610;86;20150;-72
2021/10/22 07:50:09;;;;;;;;;;;;;;;14.71;50.62;98750.97;1627012;87;20205;-74
2021/10/22 07:52:39;;;;;;;;;;;;;;;14.69;50.88;98735.06;1623351;87;20538;-70
2021/10/22 07:55:07;;;;;;;;;;;;;;;14.74;50.29;98759.82;1626194;87;20098;-73
2021/10/22 07:57:37;;;;;;;;;;;;;;;14.80;50.30;98739.73;1607775;86;20151;-77
2021/10/22 08:00:06;;;;;;;;;;;;;;;15.12;49.73;98761.75;1620684;86;20166;-73
2021/10/22 08:02:38;;;;;;;;;;;;;;;15.11;48.95;98760.13;1635887;86;20203;-71
2021/10/22 08:05:12;;;;;;;;;;;;;;;15.13;48.66;98770.09;1627704;86;21089;-72
2021/10/22 08:07:41;;;;;;;;;;;;;;;15.44;47.67;98758.63;1622960;87;20569;-71
2021/10/22 08:10:09;;;;;;;;;;;;;;;15.09;48.52;98776.41;1623994;86;20637;-75
2021/10/22 08:12:36;;;;;;;;;;;;;;;15.34;47.58;98753.45;1620988;86;20230;-74
2021/10/22 08:15:06;;;;;;;;;;;;;;;15.17;47.47;98775.16;1625687;87;20180;-73
2021/10/22 08:17:33;;;;;;;;;;;;;;;15.13;47.53;98778.20;1611461;86;21199;-71
2021/10/22 08:22:32;;;;;;;;;;;;;;;15.44;46.70;98784.32;1588494;89;20634;-73
2021/10/22 08:25:04;;;;;;;;;;;;;;;15.40;47.14;98788.73;1647217;85;20504;-72
2021/10/22 08:27:41;;;;;;;;;;;;;;;14.97;47.27;98778.30;1661681;85;20228;-75
2021/10/22 08:30:10;;;;;;;;;;;;;;;15.52;46.48;98782.79;1676559;85;22157;-74
2021/10/22 08:32:37;;;;;;;;;;;;;;;15.36;46.28;98770.97;1678133;85;20084;-74
2021/10/22 08:35:06;;;;;;;;;;;;;;;15.57;46.14;98786.73;1678966;85;20123;-75
2021/10/22 08:37:38;;;;;;;;;;;;;;;15.72;45.88;98775.58;1660060;85;20458;-76
2021/10/22 08:40:09;;;;;;;;;;;;;;;15.72;45.60;98800.48;1679411;85;20192;-73
2021/10/22 08:42:37;;;;;;;;;;;;;;;15.62;45.51;98804.20;1671483;84;21161;-77
2021/10/22 08:45:05;;;;;;;;;;;;;;;15.97;44.92;98803.14;1644013;86;20203;-71
2021/10/22 08:47:32;;;;;;;;;;;;;;;16.12;43.88;98808.73;1660453;86;20169;-74
2021/10/22 08:50:00;;;;;;;;;;;;;;;15.75;44.47;98806.63;1660667;85;20197;-72
2021/10/22 08:52:29;;;;;;;;;;;;;;;15.89;44.59;98820.13;1660695;85;20154;-73
2021/10/22 08:54:59;;;;;;;;;;;;;;;15.74;44.19;98805.05;1663448;84;21189;-75
2021/10/22 08:57:26;;;;;;;;;;;;;;;15.86;43.98;98816.12;1662479;84;20191;-72
2021/10/22 08:59:57;;;;;;;;;;;;;;;15.67;44.35;98806.78;1666170;85;20182;-72
2021/10/22 09:02:24;;;;;;;;;;;;;;;15.80;44.19;98814.10;1665670;85;20463;-72
2021/10/22 09:05:03;;;;;;;;;;;;;;;15.99;44.08;98826.64;1659123;86;20182;-71
2021/10/22 09:07:51;;;;;;;;;;;;;;;16.06;43.17;98815.62;1665624;84;20179;-75
2021/10/22 09:10:24;;;;;;;;;;;;;;;16.22;42.86;98820.69;1664658;85;20082;-73
2021/10/22 09:13:07;;;;;;;;;;;;;;;15.95;42.86;98822.41;1657310;84;20513;-75
2021/10/22 09:15:40;;;;;;;;;;;;;;;15.72;43.35;98831.04;1651718;86;20215;-72
2021/10/22 09:18:18;;;;;;;;;;;;;;;15.65;43.28;98825.22;1663606;85;20445;-71
2021/10/22 09:20:51;;;;;;;;;;;;;;;15.50;43.40;98830.97;1672104;84;21152;-71
2021/10/22 09:23:28;;;;;;;;;;;;;;;15.69;42.94;98823.52;1654427;85;20150;-68
2021/10/22 09:26:26;;;;;;;;;;;;;;;15.50;42.92;98812.84;1656438;85;20142;-74
2021/10/22 09:28:56;;;;;;;;;;;;;;;15.65;42.83;98831.98;1651951;85;20150;-74
2021/10/22 09:31:24;;;;;;;;;;;;;;;15.70;42.55;98827.05;1663143;84;20450;-73
2021/10/22 09:33:59;;;;;;;;;;;;;;;15.68;42.85;98842.21;1647250;84;21132;-72
2021/10/22 09:36:43;;;;;;;;;;;;;;;15.92;42.57;98846.01;1657699;85;20175;-72
2021/10/22 09:39:15;;;;;;;;;;;;;;;16.07;42.46;98794.23;1647980;85;20103;-72
2021/10/22 09:42:00;;;;;;;;;;;;;;;16.14;41.61;98810.59;1688816;85;20410;-70
2021/10/22 09:44:41;;;;;;;;;;;;;;;16.03;41.61;98810.84;1676647;85;20134;-72
2021/10/22 09:47:12;;;;;;;;;;;;;;;16.02;42.06;98832.79;1649748;85;21130;-73
2021/10/22 09:49:50;;;;;;;;;;;;;;;16.21;41.69;98859.13;1671494;85;20101;-69
2021/10/22 09:52:24;;;;;;;;;;;;;;;15.89;41.84;98824.98;1659953;85;20146;-73
2021/10/22 09:55:06;;;;;;;;;;;;;;;15.16;43.22;98831.69;1671857;85;20124;-73
2021/10/22 09:57:36;;;;;;;;;;;;;;;15.24;43.18;98827.47;1666587;84;20158;-70
2021/10/22 10:00:12;;;;;;;;;;;;;;;15.53;42.64;98839.30;1658794;85;21155;-72
2021/10/22 10:02:42;;;;;;;;;;;;;;;15.30;43.47;98824.89;1662832;85;20178;-74
2021/10/22 10:05:11;;;;;;;;;;;;;;;15.18;43.11;98844.88;1676945;85;20441;-72
2021/10/22 10:07:42;;;;;;;;;;;;;;;15.00;43.61;98847.94;1688919;85;20213;-71
2021/10/22 10:10:11;;;;;;;;;;;;;;;15.00;43.83;98833.08;1671406;85;20215;-73
2021/10/22 10:12:38;;;;;;;;;;;;;;;15.12;43.83;98856.91;1674916;84;21150;-71
2021/10/22 10:15:07;;;;;;;;;;;;;;;14.53;44.79;98839.88;1673517;85;20178;-71
2021/10/22 10:17:43;;;;;;;;;;;;;;;14.53;45.28;98838.53;1667202;85;20102;-69
2021/10/22 10:20:11;;;;;;;;;;;;;;;14.83;44.56;98825.56;1661267;85;20226;-72
2021/10/22 10:22:42;;;;;;;;;;;;;;;15.17;43.87;98845.44;1666700;85;20535;-72
2021/10/22 10:25:07;;;;;;;;;;;;;;;15.47;42.42;98824.83;1650747;85;21175;-72
2021/10/22 10:27:48;;;;;;;;;;;;;;;15.38;41.53;98802.54;1603864;87;20202;-70
2021/10/22 10:30:15;;;;;;;;;;;;;;;15.81;41.34;98864.95;1659731;85;20159;-68
2021/10/22 10:32:42;;;;;;;;;;;;;;;15.42;41.61;98835.20;1648131;85;20619;-74
2021/10/22 10:35:13;;;;;;;;;;;;;;;15.85;41.57;98863.25;1631487;88;20160;-74
2021/10/22 10:37:43;;;;;;;;;;;;;;;15.82;40.92;98863.27;1631669;87;21078;-74
2021/10/22 10:40:12;;;;;;;;;;;;;;;15.89;40.66;98845.83;1629990;85;20161;-73
2021/10/22 10:42:43;;;;;;;;;;;;;;;15.93;39.70;98859.01;1634844;85;20187;-75
2021/10/22 10:45:17;;;;;;;;;;;;;;;15.75;40.29;98854.80;1701291;83;20495;-76
2021/10/22 10:47:49;;;;;;;;;;;;;;;16.08;39.86;98851.31;1698958;84;20201;-72
2021/10/22 10:50:18;;;;;;;;;;;;;;;15.65;40.69;98853.09;1674338;84;21149;-71
2021/10/22 10:52:47;;;;;;;;;;;;;;;15.03;41.63;98835.17;1663800;85;20173;-72
2021/10/22 10:55:37;;;;;;;;;;;;;;;14.69;42.52;98855.25;1664551;85;20135;-71
2021/10/22 10:58:15;;;;;;;;;;;;;;;14.54;43.10;98856.88;1666854;84;20192;-73
2021/10/22 11:00:49;;;;;;;;;;;;;;;14.89;42.50;98839.77;1685639;84;20449;-76
2021/10/22 11:03:23;;;;;;;;;;;;;;;15.47;41.57;98842.41;1670019;84;21194;-71
2021/10/22 11:05:55;;;;;;;;;;;;;;;15.83;40.86;98840.54;1678921;84;20533;-70
2021/10/22 11:08:25;;;;;;;;;;;;;;;15.65;41.02;98840.92;1660086;84;20471;-74
2021/10/22 11:11:15;;;;;;;;;;;;;;;15.51;41.06;98852.88;1667134;84;20206;-68
2021/10/22 11:13:53;;;;;;;;;;;;;;;15.47;41.12;98859.98;1678711;84;20174;-71
2021/10/22 11:16:36;;;;;;;;;;;;;;;15.20;40.34;98852.14;1663557;84;21969;-74
2021/10/22 11:19:18;;;;;;;;;;;;;;;15.32;39.76;98850.28;1662081;84;20443;-71
2021/10/22 11:21:56;;;;;;;;;;;;;;;15.27;39.60;98866.61;1682752;82;20645;-72
2021/10/22 11:24:32;;;;;;;;;;;;;;;15.41;39.28;98870.91;1677740;83;20457;-73
2021/10/22 11:27:02;;;;;;;;;;;;;;;15.82;38.50;98859.77;1696738;82;20345;-73
2021/10/22 11:29:32;;;;;;;;;;;;;;;16.01;37.96;98829.29;1680786;84;21111;-73
2021/10/22 11:32:09;;;;;;;;;;;;;;;15.89;37.63;98858.80;1641874;86;20188;-72
2021/10/22 11:34:39;;;;;;;;;;;;;;;16.09;37.26;98862.94;1652140;85;20121;-73
2021/10/22 11:37:15;;;;;;;;;;;;;;;16.18;36.97;98849.48;1654245;85;21386;-73
2021/10/22 11:39:45;;;;;;;;;;;;;;;16.48;36.42;98864.17;1620289;86;20150;-75
2021/10/22 11:42:19;;;;;;;;;;;;;;;16.37;36.75;98868.26;1633977;85;21120;-73
2021/10/22 11:44:54;;;;;;;;;;;;;;;16.20;36.81;98875.14;1650198;87;20214;-72
2021/10/22 11:47:24;;;;;;;;;;;;;;;16.52;36.66;98880.06;1650306;87;20479;-74
2021/10/22 11:49:51;;;;;;;;;;;;;;;16.45;35.90;98862.88;1636265;85;20150;-74
2021/10/22 11:52:21;;;;;;;;;;;;;;;16.20;35.72;98862.16;1618340;85;20196;-76
2021/10/22 11:54:52;;;;;;;;;;;;;;;16.23;35.80;98872.37;1631960;87;21511;-74
2021/10/22 11:57:24;;;;;;;;;;;;;;;15.81;36.17;98867.66;1620520;88;20201;-69
2021/10/22 11:59:56;;;;;;;;;;;;;;;15.63;36.96;98880.99;1640853;86;20189;-72
2021/10/22 12:02:31;;;;;;;;;;;;;;;15.72;36.97;98844.56;1631111;86;20134;-72
2021/10/22 12:05:04;;;;;;;;;;;;;;;15.71;37.38;98874.66;1634450;86;20157;-75
2021/10/22 12:07:36;;;;;;;;;;;;;;;15.78;37.52;98874.48;1625907;87;20184;-71
2021/10/22 12:10:08;;;;;;;;;;;;;;;16.14;37.33;98870.94;1620925;86;20197;-73
2021/10/22 12:12:43;;;;;;;;;;;;;;;16.15;36.56;98864.44;1616980;86;20159;-74
2021/10/22 12:15:11;;;;;;;;;;;;;;;16.24;36.34;98857.71;1609125;87;20189;-73
2021/10/22 12:17:42;;;;;;;;;;;;;;;15.80;36.52;98874.16;1623312;86;20553;-71
2021/10/22 12:20:21;;;;;;;;;;;;;;;16.00;36.77;98872.36;1623263;86;21098;-73
2021/10/22 12:22:54;;;;;;;;;;;;;;;15.88;36.88;98869.95;1631497;86;20179;-74
2021/10/22 12:25:33;;;;;;;;;;;;;;;16.26;36.56;98877.16;1622735;86;20212;-73
2021/10/22 12:28:11;;;;;;;;;;;;;;;16.55;36.22;98879.99;1624963;88;20461;-76
2021/10/22 12:33:32;;;;;;;;;;;;;;;16.03;36.57;98883.13;1618845;86;21165;-75
2021/10/22 12:36:03;;;;;;;;;;;;;;;15.87;36.39;98874.54;1669796;85;20142;-67
2021/10/22 12:38:32;;;;;;;;;;;;;;;15.65;36.92;98844.98;1663429;84;20166;-74
2021/10/22 12:41:03;;;;;;;;;;;;;;;15.65;37.02;98880.67;1629826;86;20146;-75
2021/10/22 12:43:31;;;;;;;;;;;;;;;15.62;37.35;98880.73;1675225;85;20155;-73
2021/10/22 12:46:05;;;;;;;;;;;;;;;15.57;36.88;98876.78;1674147;85;21109;-72
2021/10/22 12:48:52;;;;;;;;;;;;;;;15.54;37.45;98877.95;1651705;85;20132;-72
2021/10/22 12:51:29;;;;;;;;;;;;;;;15.62;37.63;98880.73;1658684;86;20095;-73
2021/10/22 12:54:01;;;;;;;;;;;;;;;15.95;37.48;98891.95;1677621;85;20095;-70
2021/10/22 12:56:33;;;;;;;;;;;;;;;15.87;37.74;98884.02;1682572;85;20148;-72
2021/10/22 12:59:03;;;;;;;;;;;;;;;15.84;37.51;98903.57;1680817;85;21128;-72
2021/10/22 13:01:37;;;;;;;;;;;;;;;15.56;37.04;98901.45;1667895;84;20106;-73
2021/10/22 13:04:17;;;;;;;;;;;;;;;15.41;37.27;98894.45;1683863;85;20099;-74
2021/10/22 13:06:59;;;;;;;;;;;;;;;15.48;37.03;98889.97;1619502;86;20211;-71
2021/10/22 13:22:55;;;;;;;;;;;;;;;15.01;37.48;98898.17;1624163;86;20169;-74
2021/10/22 13:25:23;;;;;;;;;;;;;;;14.99;37.52;98880.10;1671178;84;21103;-76
2021/10/22 13:27:50;;;;;;;;;;;;;;;14.98;37.85;98896.08;1668050;84;20473;-71